createdAt,value
2022-12-23T00:02:11.049Z,99257.19
2022-12-23T00:04:40.576Z,99245.81
2022-12-23T00:07:10.810Z,99240.56
2022-12-23T00:09:42.943Z,99223.72
2022-12-23T00:16:52.691Z,99166.97
2022-12-23T00:19:22.276Z,99154.38
2022-12-23T00:21:52.623Z,99155.81
2022-12-23T00:24:22.389Z,99135.50
2022-12-23T00:26:54.601Z,99142.13
2022-12-23T00:29:27.251Z,99141.28
2022-12-23T00:31:58.722Z,99118.22
2022-12-23T00:34:30.194Z,99089.28
2022-12-23T00:37:00.231Z,99065.28
2022-12-23T00:39:52.077Z,99045.78
2022-12-23T00:42:44.811Z,99053.97
2022-12-23T00:45:16.742Z,99048.50
2022-12-23T00:51:53.437Z,99004.59
2022-12-23T00:54:23.724Z,99003.66
2022-12-23T00:56:52.848Z,99004.72
2022-12-23T00:59:23.433Z,99013.66
2022-12-23T01:02:12.626Z,99025.25
2022-12-23T01:05:00.815Z,99001.81
2022-12-23T01:07:32.045Z,98965.63
2022-12-23T01:10:02.643Z,98930.66
2022-12-23T01:12:32.756Z,98932.84
2022-12-23T01:15:02.434Z,98924.31
2022-12-23T01:17:32.629Z,98913.72
2022-12-23T01:25:23.422Z,98854.63
2022-12-23T01:27:52.555Z,98855.59
2022-12-23T01:30:23.889Z,98858.06
2022-12-23T01:32:53.377Z,98856.00
2022-12-23T01:35:28.016Z,98833.84
2022-12-23T01:37:59.321Z,98830.97
2022-12-23T01:40:38.409Z,98845.91
2022-12-23T01:43:08.487Z,98857.78
2022-12-23T01:45:38.497Z,98833.19
2022-12-23T01:48:17.015Z,98824.25
2022-12-23T01:50:58.269Z,98816.81
2022-12-23T01:53:32.197Z,98822.25
2022-12-23T01:56:08.163Z,98828.88
2022-12-23T01:58:52.423Z,98823.25
2022-12-23T02:01:41.297Z,98814.44
2022-12-23T02:04:15.090Z,98817.13
2022-12-23T02:07:05.132Z,98804.66
2022-12-23T02:09:38.235Z,98807.13
2022-12-23T02:12:27.049Z,98804.66
2022-12-23T02:15:32.054Z,98802.09
2022-12-23T02:18:11.971Z,98782.13
2022-12-23T02:21:16.624Z,98753.44
2022-12-23T02:24:14.702Z,98741.84
2022-12-23T02:27:12.231Z,98717.53
2022-12-23T02:29:50.587Z,98706.16
2022-12-23T02:32:54.097Z,98703.72
2022-12-23T02:35:32.063Z,98697.22
2022-12-23T02:38:29.525Z,98695.34
2022-12-23T02:41:06.353Z,98686.16
2022-12-23T02:43:51.351Z,98680.19
2022-12-23T02:46:24.495Z,98674.84
2022-12-23T02:48:58.820Z,98672.13
2022-12-23T02:51:36.095Z,98665.84
2022-12-23T02:54:10.442Z,98657.50
2022-12-23T02:56:44.111Z,98640.19
2022-12-23T02:59:46.068Z,98625.34
2022-12-23T03:02:14.989Z,98622.91
2022-12-23T03:04:45.141Z,98616.94
2022-12-23T03:07:24.137Z,98606.66
2022-12-23T03:10:18.222Z,98597.19
2022-12-23T03:13:04.860Z,98577.44
2022-12-23T03:15:44.899Z,98563.56
2022-12-23T03:18:33.231Z,98556.63
2022-12-23T03:21:21.665Z,98539.25
2022-12-23T03:24:24.351Z,98526.34
2022-12-23T03:27:20.189Z,98512.53
2022-12-23T03:29:48.808Z,98514.66
2022-12-23T03:33:13.151Z,98499.34
2022-12-23T03:36:27.788Z,98484.16
2022-12-23T03:38:59.951Z,98470.94
2022-12-23T03:41:40.657Z,98474.19
2022-12-23T03:44:16.922Z,98474.22
2022-12-23T03:47:12.407Z,98465.50
2022-12-23T03:50:02.926Z,98453.63
2022-12-23T03:52:44.813Z,98448.81
2022-12-23T03:55:40.811Z,98444.41
2022-12-23T03:58:27.908Z,98425.22
2022-12-23T04:01:10.527Z,98416.31
2022-12-23T04:04:10.350Z,98401.56
2022-12-23T04:10:45.567Z,98370.34
2022-12-23T04:13:14.647Z,98359.63
2022-12-23T04:15:45.027Z,98353.53
2022-12-23T04:18:17.061Z,98350.47
2022-12-23T04:20:48.536Z,98336.41
2022-12-23T04:23:18.595Z,98325.88
2022-12-23T04:25:48.233Z,98312.06
2022-12-23T04:28:19.432Z,98297.47
2022-12-23T04:30:48.437Z,98283.69
2022-12-23T04:33:18.303Z,98280.69
2022-12-23T04:35:47.362Z,98263.13
2022-12-23T04:38:17.207Z,98257.31
2022-12-23T04:40:48.342Z,98248.06
2022-12-23T04:43:18.452Z,98237.13
2022-12-23T04:45:52.679Z,98238.00
2022-12-23T04:48:27.488Z,98224.69
2022-12-23T04:50:58.829Z,98217.19
2022-12-23T04:53:30.819Z,98209.44
2022-12-23T04:56:01.226Z,98205.34
2022-12-23T04:58:30.841Z,98195.28
2022-12-23T05:01:08.624Z,98193.09
2022-12-23T05:03:40.602Z,98193.72
2022-12-23T05:06:10.751Z,98189.03
2022-12-23T05:08:40.082Z,98181.97
2022-12-23T05:11:50.667Z,98177.31
2022-12-23T05:15:24.681Z,98157.94
2022-12-23T05:17:57.948Z,98158.16
2022-12-23T05:20:28.672Z,98144.00
2022-12-23T05:23:00.310Z,98153.00
2022-12-23T05:25:31.186Z,98145.56
2022-12-23T05:28:00.396Z,98141.31
2022-12-23T05:30:30.971Z,98129.13
2022-12-23T05:33:00.694Z,98123.72
2022-12-23T05:35:32.812Z,98112.41
2022-12-23T05:38:04.338Z,98111.38
2022-12-23T05:40:33.575Z,98103.31
2022-12-23T05:43:04.136Z,98093.50
2022-12-23T05:46:04.987Z,98086.31
2022-12-23T05:48:35.516Z,98088.56
2022-12-23T05:51:04.831Z,98098.53
2022-12-23T05:53:35.297Z,98101.38
2022-12-23T05:56:08.475Z,98120.19
2022-12-23T05:58:38.289Z,98129.72
2022-12-23T06:01:07.054Z,98143.16
2022-12-23T06:03:36.002Z,98152.69
2022-12-23T06:06:08.978Z,98146.00
2022-12-23T06:08:38.229Z,98146.28
2022-12-23T06:11:08.321Z,98144.75
2022-12-23T06:13:39.339Z,98153.09
2022-12-23T06:17:03.546Z,98143.94
2022-12-23T06:20:11.218Z,98147.97
2022-12-23T06:22:46.995Z,98164.56
2022-12-23T06:25:17.181Z,98147.13
2022-12-23T06:27:46.762Z,98152.41
2022-12-23T06:30:16.261Z,98128.69
2022-12-23T06:32:45.168Z,98128.00
2022-12-23T06:35:14.913Z,98119.53
2022-12-23T06:37:46.687Z,98126.78
2022-12-23T06:40:16.327Z,98144.78
2022-12-23T06:42:46.657Z,98134.91
2022-12-23T06:45:16.541Z,98139.06
2022-12-23T06:47:46.528Z,98142.31
2022-12-23T06:50:16.017Z,98143.09
2022-12-23T06:52:46.225Z,98139.28
2022-12-23T06:55:15.187Z,98128.75
2022-12-23T06:57:45.653Z,98123.06
2022-12-23T07:00:15.714Z,98123.06
2022-12-23T07:02:44.717Z,98119.31
2022-12-23T07:05:14.905Z,98100.63
2022-12-23T07:07:44.291Z,98112.34
2022-12-23T07:10:13.710Z,98108.78
2022-12-23T07:12:48.987Z,98106.84
2022-12-23T07:15:20.318Z,98096.13
2022-12-23T07:17:50.333Z,98078.56
2022-12-23T07:20:19.199Z,98067.78
2022-12-23T07:23:58.718Z,98050.03
2022-12-23T07:26:39.355Z,98009.66
2022-12-23T07:29:08.937Z,97982.88
2022-12-23T07:31:41.165Z,97968.41
2022-12-23T07:34:11.270Z,97967.34
2022-12-23T07:36:40.537Z,97981.31
2022-12-23T07:39:10.015Z,97983.59
2022-12-23T07:41:38.680Z,97992.31
2022-12-23T07:44:10.314Z,97990.91
2022-12-23T07:46:40.467Z,98000.00
2022-12-23T07:49:10.543Z,97988.72
2022-12-23T07:51:39.699Z,97987.66
2022-12-23T07:54:08.895Z,97978.31
2022-12-23T08:00:15.506Z,97991.63
2022-12-23T08:02:44.850Z,97990.63
2022-12-23T08:05:16.980Z,97975.75
2022-12-23T08:07:46.772Z,97960.63
2022-12-23T08:10:16.514Z,97967.91
2022-12-23T08:12:47.689Z,97957.91
2022-12-23T08:15:16.682Z,97963.06
2022-12-23T08:17:45.140Z,97952.28
2022-12-23T08:20:15.291Z,97945.28
2022-12-23T08:22:44.186Z,97931.91
2022-12-23T08:25:14.493Z,97917.94
2022-12-23T08:27:42.895Z,97901.34
2022-12-23T08:35:29.068Z,97879.56
2022-12-23T08:37:59.865Z,97869.63
2022-12-23T08:40:30.392Z,97853.19
2022-12-23T08:43:00.856Z,97840.13
2022-12-23T08:45:30.528Z,97835.31
2022-12-23T08:48:04.737Z,97824.38
2022-12-23T08:50:43.702Z,97811.91
2022-12-23T08:53:14.561Z,97804.25
2022-12-23T08:55:46.919Z,97811.91
2022-12-23T08:58:16.747Z,97814.84
2022-12-23T09:00:46.824Z,97809.75
2022-12-23T09:03:15.813Z,97806.81
2022-12-23T09:05:44.684Z,97807.34
2022-12-23T09:08:14.463Z,97811.91
2022-12-23T09:10:44.238Z,97809.13
2022-12-23T09:13:22.349Z,97817.19
2022-12-23T09:15:58.816Z,97801.00
2022-12-23T09:18:28.850Z,97807.22
2022-12-23T09:21:08.603Z,97814.97
2022-12-23T09:23:37.148Z,97811.50
2022-12-23T09:26:09.291Z,97810.38
2022-12-23T09:28:40.483Z,97811.94
2022-12-23T09:31:12.636Z,97798.78
2022-12-23T09:33:43.453Z,97789.69
2022-12-23T09:36:12.787Z,97793.28
2022-12-23T09:39:17.087Z,97796.22
2022-12-23T09:42:19.941Z,97781.56
2022-12-23T09:45:02.328Z,97773.06
2022-12-23T09:47:34.755Z,97767.25
2022-12-23T09:50:12.972Z,97757.31
2022-12-23T09:52:53.741Z,97777.16
2022-12-23T09:55:31.096Z,97752.19
2022-12-23T09:58:08.352Z,97750.63
2022-12-23T10:00:44.403Z,97751.50
2022-12-23T10:03:13.342Z,97725.47
2022-12-23T10:06:08.738Z,97724.84
2022-12-23T10:08:43.468Z,97726.19
2022-12-23T10:11:41.283Z,97708.06
2022-12-23T10:15:09.212Z,97701.09
2022-12-23T10:17:44.130Z,97676.56
2022-12-23T10:20:22.693Z,97677.06
2022-12-23T10:22:52.579Z,97660.69
2022-12-23T10:25:34.679Z,97641.78
2022-12-23T10:28:03.936Z,97641.19
2022-12-23T10:31:05.854Z,97646.84
2022-12-23T10:34:13.975Z,97664.69
2022-12-23T10:37:12.760Z,97663.09
2022-12-23T10:40:04.742Z,97658.84
2022-12-23T10:42:46.859Z,97644.31
2022-12-23T10:46:20.956Z,97644.44
2022-12-23T10:49:04.535Z,97635.75
2022-12-23T10:52:00.334Z,97629.88
2022-12-23T10:54:38.821Z,97627.03
2022-12-23T10:57:08.667Z,97625.91
2022-12-23T10:59:39.642Z,97605.25
2022-12-23T11:02:29.992Z,97590.06
2022-12-23T11:05:00.297Z,97589.56
2022-12-23T11:07:45.503Z,97562.50
2022-12-23T11:10:22.214Z,97543.47
2022-12-23T11:12:54.383Z,97547.19
2022-12-23T11:15:39.832Z,97525.75
2022-12-23T11:22:28.485Z,97533.31
2022-12-23T11:25:40.024Z,97547.22
2022-12-23T11:28:16.430Z,97543.13
2022-12-23T11:30:56.201Z,97545.44
2022-12-23T11:33:32.571Z,97535.28
2022-12-23T11:36:14.732Z,97535.34
2022-12-23T11:39:10.655Z,97521.34
2022-12-23T11:41:48.154Z,97513.09
2022-12-23T11:45:01.673Z,97522.56
2022-12-23T11:47:42.032Z,97510.00
2022-12-23T11:50:29.181Z,97492.56
2022-12-23T11:53:24.090Z,97475.75
2022-12-23T11:56:04.576Z,97474.69
2022-12-23T11:58:48.824Z,97448.59
2022-12-23T12:01:24.070Z,97449.66
2022-12-23T12:04:01.170Z,97447.22
2022-12-23T12:06:33.550Z,97438.63
2022-12-23T12:09:06.915Z,97441.56
2022-12-23T12:11:46.556Z,97428.44
2022-12-23T12:14:32.434Z,97431.66
2022-12-23T12:17:12.685Z,97431.66
2022-12-23T12:19:53.483Z,97426.03
2022-12-23T12:26:29.143Z,97414.84
2022-12-23T12:29:10.492Z,97404.94
2022-12-23T12:31:52.018Z,97412.16
2022-12-23T12:34:38.752Z,97404.38
2022-12-23T12:37:13.256Z,97415.88
2022-12-23T12:39:51.503Z,97398.09
2022-12-23T12:43:00.498Z,97397.38
2022-12-23T12:46:09.426Z,97392.28
2022-12-23T12:48:58.247Z,97395.75
2022-12-23T12:51:47.197Z,97408.38
2022-12-23T12:54:30.870Z,97409.41
2022-12-23T12:57:03.171Z,97414.50
2022-12-23T12:59:40.318Z,97430.84
2022-12-23T13:02:36.462Z,97446.47
2022-12-23T13:05:40.623Z,97465.22
2022-12-23T13:08:10.525Z,97490.84
2022-12-23T13:11:06.864Z,97490.84
2022-12-23T13:14:15.804Z,97481.81
2022-12-23T13:16:52.181Z,97481.13
2022-12-23T13:19:37.665Z,97479.88
2022-12-23T13:22:16.515Z,97484.03
2022-12-23T13:25:14.935Z,97476.91
2022-12-23T13:28:04.561Z,97467.97
2022-12-23T13:31:29.418Z,97467.84
2022-12-23T13:34:21.903Z,97467.19
2022-12-23T13:36:55.011Z,97472.72
2022-12-23T13:40:25.311Z,97453.81
2022-12-23T13:43:04.588Z,97456.00
2022-12-23T13:45:38.825Z,97462.34
2022-12-23T13:48:44.721Z,97456.03
2022-12-23T13:51:27.794Z,97452.00
2022-12-23T13:54:21.434Z,97453.81
2022-12-23T13:57:31.102Z,97457.09
2022-12-23T14:00:20.145Z,97470.25
2022-12-23T14:06:47.338Z,97502.00
2022-12-23T14:09:18.797Z,97503.63
2022-12-23T14:11:48.419Z,97509.78
2022-12-23T14:14:27.803Z,97550.19
2022-12-23T14:17:10.355Z,97578.59
2022-12-23T14:19:52.701Z,97591.47
2022-12-23T14:23:01.318Z,97626.03
2022-12-23T14:25:53.736Z,97653.19
2022-12-23T14:28:30.167Z,97642.16
2022-12-23T14:31:00.283Z,97660.22
2022-12-23T14:33:34.395Z,97661.63
2022-12-23T14:37:12.836Z,97658.91
2022-12-23T14:39:42.813Z,97701.41
2022-12-23T14:42:16.453Z,97717.31
2022-12-23T14:44:50.798Z,97749.91
2022-12-23T14:47:35.263Z,97742.38
2022-12-23T14:50:37.032Z,97745.41
2022-12-23T14:53:23.014Z,97769.09
2022-12-23T14:56:13.999Z,97782.84
2022-12-23T14:59:08.376Z,97811.63
2022-12-23T15:02:24.935Z,97831.47
2022-12-23T15:05:00.945Z,97878.06
2022-12-23T15:07:48.489Z,97879.06
2022-12-23T15:10:24.987Z,97883.50
2022-12-23T15:13:05.351Z,97911.31
2022-12-23T15:15:35.868Z,97922.59
2022-12-23T15:18:28.503Z,97891.22
2022-12-23T15:21:12.492Z,97950.69
2022-12-23T15:23:50.120Z,97961.81
2022-12-23T15:26:29.506Z,97922.47
2022-12-23T15:29:01.162Z,97928.84
2022-12-23T15:31:43.003Z,97911.38
2022-12-23T15:34:18.773Z,97940.72
2022-12-23T15:36:48.763Z,97972.22
2022-12-23T15:39:24.072Z,97967.59
2022-12-23T15:41:56.921Z,97948.44
2022-12-23T15:44:40.121Z,97979.81
2022-12-23T15:47:30.512Z,97964.69
2022-12-23T15:50:01.311Z,97966.63
2022-12-23T15:52:32.577Z,97986.72
2022-12-23T15:55:20.756Z,97987.75
2022-12-23T15:58:00.026Z,97989.31
2022-12-23T16:00:50.796Z,98046.28
2022-12-23T16:03:35.518Z,98014.34
2022-12-23T16:06:40.735Z,98028.03
2022-12-23T16:09:13.262Z,98036.84
2022-12-23T16:15:40.432Z,98036.03
2022-12-23T16:18:20.560Z,98066.75
2022-12-23T16:20:54.850Z,98078.16
2022-12-23T16:34:58.383Z,98132.13
2022-12-23T16:37:44.618Z,98155.31
2022-12-23T16:40:22.540Z,98173.13
2022-12-23T16:42:57.037Z,98137.88
2022-12-23T16:45:27.003Z,98144.09
2022-12-23T16:47:59.195Z,98147.22
2022-12-23T16:50:32.190Z,98174.88
2022-12-23T16:53:01.582Z,98148.91
2022-12-23T16:55:32.075Z,98179.59
2022-12-23T16:58:03.928Z,98173.59
2022-12-23T17:00:43.272Z,98203.06
2022-12-23T17:03:18.728Z,98178.81
2022-12-23T17:08:47.969Z,98230.81
2022-12-23T17:11:18.638Z,98226.66
2022-12-23T17:14:03.288Z,98211.53
2022-12-23T17:16:38.138Z,98219.47
2022-12-23T17:19:10.812Z,98236.78
2022-12-23T17:21:47.300Z,98242.59
2022-12-23T17:24:28.266Z,98229.97
2022-12-23T17:26:59.659Z,98243.13
2022-12-23T17:29:39.085Z,98243.22
2022-12-23T17:32:15.038Z,98273.41
2022-12-23T17:34:46.355Z,98286.59
2022-12-23T17:37:23.358Z,98290.97
2022-12-23T17:39:54.301Z,98301.72
2022-12-23T17:42:26.132Z,98282.97
2022-12-23T17:44:55.726Z,98283.63
2022-12-23T17:47:29.565Z,98278.31
2022-12-23T17:50:00.697Z,98297.25
2022-12-23T17:52:29.183Z,98302.97
2022-12-23T17:54:58.986Z,98317.81
2022-12-23T17:57:32.824Z,98334.00
2022-12-23T18:00:06.128Z,98350.91
2022-12-23T18:02:43.272Z,98330.22
2022-12-23T18:05:25.903Z,98332.56
2022-12-23T18:07:59.090Z,98333.94
2022-12-23T18:10:39.049Z,98324.50
2022-12-23T18:13:15.429Z,98358.16
2022-12-23T18:15:47.103Z,98357.34
2022-12-23T18:18:28.621Z,98366.00
2022-12-23T18:21:18.834Z,98389.44
2022-12-23T18:23:47.534Z,98377.31
2022-12-23T18:26:18.725Z,98379.88
2022-12-23T18:28:48.152Z,98399.69
2022-12-23T18:31:22.271Z,98394.34
2022-12-23T18:33:53.897Z,98384.28
2022-12-23T18:36:22.904Z,98389.94
2022-12-23T18:38:54.484Z,98391.63
2022-12-23T18:41:29.777Z,98400.84
2022-12-23T18:44:01.067Z,98395.38
2022-12-23T18:46:31.462Z,98399.81
2022-12-23T18:49:11.291Z,98393.72
2022-12-23T18:51:45.165Z,98415.50
2022-12-23T18:54:17.085Z,98409.19
2022-12-23T18:56:48.655Z,98412.16
2022-12-23T18:59:29.595Z,98415.31
2022-12-23T19:02:07.317Z,98444.91
2022-12-23T19:04:45.873Z,98458.34
2022-12-23T19:07:17.467Z,98449.25
2022-12-23T19:09:47.560Z,98458.00
2022-12-23T19:12:21.693Z,98443.66
2022-12-23T19:14:51.487Z,98474.84
2022-12-23T19:17:22.010Z,98465.75
2022-12-23T19:19:55.603Z,98486.81
2022-12-23T19:22:27.996Z,98474.97
2022-12-23T19:25:05.729Z,98482.94
2022-12-23T19:27:39.832Z,98503.06
2022-12-23T19:30:15.353Z,98495.66
2022-12-23T19:32:45.538Z,98499.38
2022-12-23T19:35:15.524Z,98514.56
2022-12-23T19:38:11.517Z,98518.44
2022-12-23T19:40:43.535Z,98525.19
2022-12-23T19:43:17.085Z,98541.00
2022-12-23T19:45:58.468Z,98526.50
2022-12-23T19:48:30.771Z,98568.22
2022-12-23T19:51:09.453Z,98556.44
2022-12-23T19:53:42.492Z,98547.22
2022-12-23T19:56:32.897Z,98558.94
2022-12-23T19:59:03.232Z,98563.91
2022-12-23T20:01:33.934Z,98577.59
2022-12-23T20:04:14.907Z,98572.69
2022-12-23T20:06:43.421Z,98603.22
2022-12-23T20:09:15.760Z,98604.19
2022-12-23T20:11:48.610Z,98607.63
2022-12-23T20:14:19.634Z,98605.25
2022-12-23T20:16:51.409Z,98624.38
2022-12-23T20:19:22.713Z,98633.97
2022-12-23T20:21:51.535Z,98650.63
2022-12-23T20:24:21.770Z,98638.25
2022-12-23T20:26:51.249Z,98659.88
2022-12-23T20:29:22.027Z,98658.81
2022-12-23T20:32:05.427Z,98687.47
2022-12-23T20:34:39.969Z,98705.91
2022-12-23T20:37:13.413Z,98704.91
2022-12-23T20:39:43.832Z,98719.66
2022-12-23T20:42:15.483Z,98725.09
2022-12-23T20:44:45.867Z,98735.41
2022-12-23T20:47:18.016Z,98738.16
2022-12-23T20:49:49.853Z,98740.34
2022-12-23T20:52:19.653Z,98732.06
2022-12-23T20:54:51.268Z,98736.34
2022-12-23T21:08:26.011Z,98769.94
2022-12-23T21:10:58.295Z,98771.09
2022-12-23T21:13:37.857Z,98790.31
2022-12-23T21:16:12.150Z,98788.81
2022-12-23T21:18:51.461Z,98803.81
2022-12-23T21:21:25.335Z,98789.03
2022-12-23T21:23:57.131Z,98805.09
2022-12-23T23:09:26.616Z,99003.44
2022-12-23T23:11:59.607Z,99009.31
2022-12-23T23:14:50.097Z,99008.69
2022-12-23T23:28:46.873Z,99049.34
2022-12-23T23:34:19.438Z,99062.78
2022-12-23T23:51:09.635Z,99100.00
2022-12-23T23:53:40.913Z,99098.78
